Time;durP1;ratioP1;P1;durP2;ratioP2;P2;SDS_P1;SDS_P2;PMS_P1;PMS_P2;Temp;Humidity;BMP_temperature;BMP_pressure;BME280_temperature;BME280_humidity;BME280_pressure;Samples;Min_cycle;Max_cycle;Signal;HPM_P1;HPM_P2
2022/03/19 00:02:19;;;;;;;20.40;10.52;;;;;;;1.46;53.01;102432.13;5048319;28;20029;-21
2022/03/19 00:04:46;;;;;;;18.90;11.60;;;;;;;1.66;53.28;102454.47;5047274;28;20137;-20
2022/03/19 00:07:12;;;;;;;23.02;13.70;;;;;;;1.76;53.39;102457.34;5046735;28;20028;-21
2022/03/19 00:09:39;;;;;;;18.58;11.73;;;;;;;1.95;52.83;102455.16;5048711;28;20026;-21
2022/03/19 00:12:05;;;;;;;13.98;8.00;;;;;;;1.67;52.67;102434.28;5046920;28;20025;-21
2022/03/19 00:14:31;;;;;;;15.60;9.05;;;;;;;1.78;53.71;102452.84;5046539;28;20029;-21
2022/03/19 00:16:57;;;;;;;16.73;9.77;;;;;;;1.55;54.81;102452.56;5047876;28;20040;-20
2022/03/19 00:19:23;;;;;;;14.25;8.43;;;;;;;1.48;55.32;102450.44;5048751;28;20505;-22
2022/03/19 00:21:50;;;;;;;15.80;9.23;;;;;;;1.13;56.64;102435.19;5048083;28;20036;-20
2022/03/19 00:24:15;;;;;;;14.32;9.48;;;;;;;1.07;56.97;102433.78;5048493;28;20044;-21
2022/03/19 00:26:41;;;;;;;19.77;13.50;;;;;;;1.28;56.63;102462.25;5048239;28;20025;-21
2022/03/19 00:29:06;;;;;;;17.88;10.02;;;;;;;1.05;56.56;102438.28;5047904;28;20036;-21
2022/03/19 00:31:32;;;;;;;17.15;8.52;;;;;;;1.09;57.53;102459.97;5048018;28;20032;-20
2022/03/19 00:33:57;;;;;;;15.32;9.02;;;;;;;1.39;55.32;102446.63;5047924;28;20033;-20
2022/03/19 00:36:23;;;;;;;15.98;8.98;;;;;;;1.29;55.29;102420.09;5048080;28;20401;-21
2022/03/19 00:38:48;;;;;;;15.88;8.32;;;;;;;1.29;55.68;102453.41;5047573;28;20090;-21
2022/03/19 00:41:14;;;;;;;16.45;8.43;;;;;;;1.09;57.14;102450.28;5047802;28;20024;-20
2022/03/19 00:43:39;;;;;;;16.70;9.52;;;;;;;0.77;58.59;102424.28;5046445;28;20735;-21
2022/03/19 00:46:05;;;;;;;20.45;10.60;;;;;;;0.86;58.80;102422.88;5047368;28;20107;-20
2022/03/19 00:48:30;;;;;;;17.70;9.98;;;;;;;0.79;58.24;102432.91;5046659;28;20037;-20
2022/03/19 00:50:56;;;;;;;16.83;9.95;;;;;;;0.83;58.26;102432.72;5047818;28;20029;-21
2022/03/19 00:53:21;;;;;;;16.70;9.65;;;;;;;0.89;58.60;102442.84;5046452;28;20459;-21
2022/03/19 00:55:47;;;;;;;17.13;9.00;;;;;;;1.02;57.01;102416.63;5046195;28;20103;-20
2022/03/19 00:58:12;;;;;;;20.17;12.27;;;;;;;1.16;56.84;102435.81;5046106;28;20036;-20
2022/03/19 01:00:38;;;;;;;19.38;12.52;;;;;;;1.44;55.84;102402.47;5047180;28;20471;-21
2022/03/19 01:03:04;;;;;;;17.10;9.80;;;;;;;1.56;55.05;102412.16;5047489;28;20032;-20
2022/03/19 01:05:29;;;;;;;16.80;9.85;;;;;;;2.09;54.11;102419.19;5047565;28;20027;-20
2022/03/19 01:07:56;;;;;;;20.45;11.10;;;;;;;1.79;54.17;102422.94;5047610;28;20029;-21
2022/03/19 01:10:28;;;;;;;18.10;8.98;;;;;;;1.91;53.25;102427.38;5047603;28;20040;-20
2022/03/19 01:12:55;;;;;;;14.23;8.40;;;;;;;1.49;55.54;102416.16;5047588;28;20472;-21
2022/03/19 01:15:21;;;;;;;13.85;7.97;;;;;;;1.51;55.55;102422.16;5046947;28;20524;-20
2022/03/19 01:17:47;;;;;;;15.63;8.60;;;;;;;1.20;57.54;102437.28;5046000;28;20098;-20
2022/03/19 01:20:14;;;;;;;16.70;9.20;;;;;;;1.16;56.90;102434.97;5046091;28;20463;-20
2022/03/19 01:22:42;;;;;;;15.27;9.10;;;;;;;1.45;55.41;102432.22;5045760;28;20488;-21
2022/03/19 01:25:10;;;;;;;19.27;9.13;;;;;;;1.10;57.40;102438.81;5045584;28;20574;-21
2022/03/19 01:27:37;;;;;;;15.23;8.98;;;;;;;0.84;59.25;102432.63;5047157;28;20037;-21
2022/03/19 01:30:04;;;;;;;17.70;9.82;;;;;;;1.01;57.65;102428.91;5047343;28;20029;-21
2022/03/19 01:32:30;;;;;;;13.98;9.40;;;;;;;1.09;57.98;102403.00;5047447;28;20036;-21
2022/03/19 01:34:56;;;;;;;16.15;9.40;;;;;;;1.80;55.74;102429.91;5047042;28;20032;-20
2022/03/19 01:37:22;;;;;;;15.15;8.80;;;;;;;1.62;55.85;102429.34;5047265;28;20515;-20
2022/03/19 01:39:48;;;;;;;15.13;8.27;;;;;;;1.62;56.21;102421.44;5045584;28;20056;-21
2022/03/19 01:42:33;;;;;;;19.23;9.52;;;;;;;1.71;56.77;102430.50;5047023;28;20029;-21
2022/03/19 01:44:59;;;;;;;18.52;9.95;;;;;;;1.34;57.54;102423.25;5047316;28;20033;-20
2022/03/19 01:47:26;;;;;;;16.70;9.55;;;;;;;0.82;59.98;102420.50;5047078;28;20029;-20
2022/03/19 01:49:52;;;;;;;13.98;8.68;;;;;;;1.08;58.99;102432.81;5047053;28;20056;-21
2022/03/19 01:52:18;;;;;;;16.95;8.80;;;;;;;1.26;58.43;102437.84;5045864;28;20056;-20
2022/03/19 01:54:48;;;;;;;14.88;8.60;;;;;;;1.37;57.50;102427.50;5047281;28;20523;-21
2022/03/19 01:57:17;;;;;;;16.13;8.45;;;;;;;1.35;58.05;102426.75;5045869;28;20033;-20
2022/03/19 01:59:43;;;;;;;;;;;;;;;1.31;58.91;102430.50;5050107;28;20033;-21
2022/03/19 02:02:11;;;;;;;18.95;10.00;;;;;;;1.27;57.96;102405.34;5049504;28;19905;-21
2022/03/19 02:04:38;;;;;;;18.65;10.57;;;;;;;1.40;56.90;102411.50;5050847;28;20033;-21
2022/03/19 02:07:03;;;;;;;18.90;10.43;;;;;;;1.48;56.91;102424.16;5050441;28;20456;-21
2022/03/19 02:09:29;;;;;;;15.40;8.93;;;;;;;1.60;56.12;102426.78;5048933;28;20025;-21
2022/03/19 02:11:55;;;;;;;16.38;8.30;;;;;;;1.94;55.52;102410.50;5050760;28;20127;-21
2022/03/19 02:14:20;;;;;;;18.05;10.23;;;;;;;1.34;57.13;102409.28;5049155;28;20025;-21
2022/03/19 02:16:47;;;;;;;20.33;10.95;;;;;;;0.45;62.71;102423.69;5050993;28;20652;-21
2022/03/19 02:19:13;;;;;;;16.25;9.07;;;;;;;0.66;61.93;102420.66;5051073;28;20107;-21
2022/03/19 02:21:46;;;;;;;17.50;10.27;;;;;;;1.05;60.35;102406.75;5050740;28;20111;-20
2022/03/19 02:26:56;;;;;;;18.02;9.88;;;;;;;0.64;61.42;102410.25;5050010;28;20583;-20
2022/03/19 02:29:22;;;;;;;15.73;9.02;;;;;;;0.77;62.70;102419.00;5048949;28;20602;-20
2022/03/19 02:31:50;;;;;;;17.85;9.73;;;;;;;1.22;59.50;102381.16;5050269;28;20032;-20
2022/03/19 02:34:16;;;;;;;17.33;9.45;;;;;;;0.63;62.06;102410.31;5048872;28;20043;-20
2022/03/19 02:36:42;;;;;;;16.50;9.40;;;;;;;0.65;62.42;102404.03;5050444;28;20025;-21
2022/03/19 02:39:28;;;;;;;16.02;9.65;;;;;;;1.44;59.43;102420.03;5048861;28;20037;-21
2022/03/19 02:41:54;;;;;;;15.75;9.05;;;;;;;1.57;58.07;102418.25;5050475;28;20045;-20
2022/03/19 02:44:20;;;;;;;29.77;20.23;;;;;;;1.91;57.34;102419.47;5050026;28;20029;-21
2022/03/19 02:46:51;;;;;;;26.88;19.48;;;;;;;1.80;57.05;102408.84;5015404;28;20049;-21
2022/03/19 02:49:17;;;;;;;24.77;15.65;;;;;;;1.84;57.67;102415.59;5048742;28;20025;-21
2022/03/19 02:51:45;;;;;;;19.40;12.13;;;;;;;1.70;56.86;102408.63;5048466;28;20036;-20
2022/03/19 02:54:12;;;;;;;17.75;11.27;;;;;;;1.98;56.85;102418.13;5049802;28;20033;-21
2022/03/19 02:56:40;;;;;;;22.48;12.75;;;;;;;2.06;56.65;102420.19;5049733;28;20601;-21
2022/03/19 02:59:13;;;;;;;17.33;9.65;;;;;;;1.41;58.20;102428.97;5050017;28;20044;-20
2022/03/19 03:01:40;;;;;;;14.50;8.98;;;;;;;1.32;58.34;102430.41;5049437;28;20516;-21
2022/03/19 03:04:06;;;;;;;15.73;9.63;;;;;;;1.16;60.30;102425.28;5049995;28;20036;-21
2022/03/19 03:06:35;;;;;;;15.27;9.23;;;;;;;1.52;58.44;102408.06;5049906;28;20021;-21
2022/03/19 03:09:02;;;;;;;19.75;9.63;;;;;;;2.00;56.89;102426.75;5048967;28;20108;-21
2022/03/19 03:11:27;;;;;;;15.82;8.98;;;;;;;1.73;56.97;102389.97;5049554;28;20032;-21
2022/03/19 03:13:53;;;;;;;16.80;8.98;;;;;;;1.96;56.34;102401.59;5049361;28;20029;-20
2022/03/19 03:16:19;;;;;;;16.42;9.90;;;;;;;2.16;56.08;102430.94;5047885;28;20802;-21
2022/03/19 03:18:44;;;;;;;16.95;9.20;;;;;;;1.33;58.01;102405.81;5048014;28;20108;-20
2022/03/19 03:21:10;;;;;;;15.75;8.93;;;;;;;1.58;57.36;102394.50;5049610;28;20036;-20
2022/03/19 03:23:35;;;;;;;18.15;9.55;;;;;;;1.92;56.43;102407.16;5049179;28;20025;-21
2022/03/19 03:26:01;;;;;;;16.23;9.70;;;;;;;1.86;55.40;102392.66;5047714;28;20043;-20
2022/03/19 03:28:27;;;;;;;17.50;9.63;;;;;;;1.65;56.87;102415.13;5049199;28;20025;-27
2022/03/19 03:30:53;;;;;;;20.23;9.75;;;;;;;1.57;56.59;102415.63;5048809;28;20098;-20
2022/03/19 03:33:19;;;;;;;16.88;9.23;;;;;;;0.60;59.54;102395.63;5049134;28;20556;-20
2022/03/19 03:35:44;;;;;;;16.92;8.80;;;;;;;0.90;59.92;102412.97;5049012;28;20074;-21
2022/03/19 03:38:10;;;;;;;17.63;10.38;;;;;;;1.59;58.42;102416.38;5049144;28;20037;-21
2022/03/19 03:40:36;;;;;;;20.80;13.15;;;;;;;1.26;58.87;102406.31;5048898;28;20025;-22
2022/03/19 03:43:02;;;;;;;26.75;16.98;;;;;;;1.21;58.42;102401.34;5047110;28;20098;-20
2022/03/19 03:45:29;;;;;;;23.05;13.93;;;;;;;0.91;60.45;102412.91;5047504;28;20614;-21
2022/03/19 03:47:55;;;;;;;28.77;15.70;;;;;;;0.43;62.53;102409.81;5048818;28;20512;-21
2022/03/19 03:50:20;;;;;;;32.15;17.15;;;;;;;0.14;63.51;102420.31;5048799;28;20033;-21
2022/03/19 03:52:46;;;;;;;29.80;18.13;;;;;;;0.40;62.40;102412.59;5048769;28;20412;-21
2022/03/19 03:55:13;;;;;;;26.55;15.45;;;;;;;0.31;62.76;102419.28;5047083;28;20036;-21
2022/03/19 03:57:39;;;;;;;39.50;19.33;;;;;;;-0.29;64.10;102412.34;5048513;28;20142;-21
2022/03/19 04:00:05;;;;;;;33.33;17.92;;;;;;;-0.20;63.93;102410.97;5048706;28;20066;-21
2022/03/19 04:02:31;;;;;;;41.28;22.50;;;;;;;0.17;63.93;102421.88;5047190;28;20508;-21
2022/03/19 04:04:57;;;;;;;26.33;14.70;;;;;;;0.34;61.15;102421.69;5048720;28;20473;-21
2022/03/19 04:07:23;;;;;;;25.02;13.48;;;;;;;0.84;59.19;102426.50;5048367;28;20027;-21
2022/03/19 04:09:49;;;;;;;44.47;23.55;;;;;;;0.68;59.77;102424.88;5048482;28;20032;-21
2022/03/19 04:12:15;;;;;;;50.80;25.52;;;;;;;0.45;61.38;102407.06;5048286;28;20059;-21
2022/03/19 04:14:40;;;;;;;32.13;16.48;;;;;;;0.47;60.53;102428.81;5048384;28;20056;-21
2022/03/19 04:17:06;;;;;;;19.02;11.05;;;;;;;0.55;60.01;102429.19;5048313;28;20120;-22
2022/03/19 04:19:32;;;;;;;19.33;12.40;;;;;;;0.67;60.32;102427.56;5046993;28;20025;-21
2022/03/19 04:21:57;;;;;;;22.25;12.27;;;;;;;0.32;61.42;102426.19;5047682;28;20047;-21
2022/03/19 04:24:23;;;;;;;23.02;12.35;;;;;;;0.87;60.26;102423.69;5047987;28;20037;-21
2022/03/19 04:26:48;;;;;;;19.52;12.18;;;;;;;0.84;60.32;102406.34;5046542;28;20080;-21
2022/03/19 04:29:13;;;;;;;19.35;12.10;;;;;;;0.21;62.71;102407.66;5048002;28;20036;-21
2022/03/19 04:31:39;;;;;;;26.77;17.45;;;;;;;0.05;63.93;102405.09;5048305;28;20105;-21
2022/03/19 04:34:04;;;;;;;29.30;16.27;;;;;;;0.67;61.96;102402.16;5047988;28;20735;-21
2022/03/19 04:36:30;;;;;;;23.48;14.70;;;;;;;0.86;62.03;102422.00;5047970;28;20061;-21
2022/03/19 04:39:01;;;;;;;22.45;13.85;;;;;;;0.90;61.46;102423.50;5046676;28;20452;-20
2022/03/19 04:41:27;;;;;;;23.05;12.40;;;;;;;0.98;60.24;102431.72;5047692;28;20025;-21
2022/03/19 04:43:52;;;;;;;25.98;15.75;;;;;;;1.63;59.98;102427.53;5046586;28;20036;-21
2022/03/19 04:46:18;;;;;;;22.08;12.98;;;;;;;1.38;59.38;102440.50;5047711;28;20079;-20
2022/03/19 04:48:45;;;;;;;32.75;21.90;;;;;;;1.19;59.54;102427.72;5047787;28;20429;-20
2022/03/19 04:51:16;;;;;;;26.73;18.17;;;;;;;1.08;59.42;102442.50;5046239;28;20021;-20
2022/03/19 04:53:42;;;;;;;27.48;18.92;;;;;;;0.62;60.22;102445.41;5047957;28;20041;-21
2022/03/19 04:56:08;;;;;;;30.40;16.48;;;;;;;0.51;60.64;102425.06;5047351;28;20056;-21
2022/03/19 04:58:34;;;;;;;135.32;105.40;;;;;;;0.63;60.17;102420.84;5047635;28;20043;-21
2022/03/19 05:01:00;;;;;;;54.28;27.65;;;;;;;0.59;61.21;102410.53;5046088;28;20029;-21
2022/03/19 05:03:26;;;;;;;25.48;13.75;;;;;;;1.08;58.73;102422.31;5046170;28;20041;-21
2022/03/19 05:05:51;;;;;;;27.33;15.27;;;;;;;0.99;59.28;102420.28;5046146;28;20507;-21
2022/03/19 05:08:17;;;;;;;23.52;11.88;;;;;;;0.99;59.91;102443.94;5047393;28;20035;-20
2022/03/19 05:13:30;;;;;;;87.68;60.58;;;;;;;1.28;59.71;102417.56;5047390;28;20150;-21
2022/03/19 05:15:55;;;;;;;20.73;12.02;;;;;;;1.46;58.23;102434.75;5047192;28;20544;-21
2022/03/19 05:18:21;;;;;;;22.70;12.07;;;;;;;1.22;59.37;102445.09;5047468;28;20033;-21
2022/03/19 05:20:46;;;;;;;23.75;12.02;;;;;;;1.27;58.88;102442.16;5046053;28;20029;-20
2022/03/19 05:23:12;;;;;;;19.55;10.95;;;;;;;1.49;58.37;102442.47;5047026;28;20037;-21
2022/03/19 05:25:39;;;;;;;17.48;11.02;;;;;;;1.62;58.29;102431.97;5047388;28;20082;-21
2022/03/19 05:28:04;;;;;;;20.90;11.32;;;;;;;1.85;57.51;102435.69;5047345;28;20041;-21
2022/03/19 05:30:31;;;;;;;21.40;12.23;;;;;;;1.74;57.04;102435.56;5046008;28;20029;-20
2022/03/19 05:32:57;;;;;;;19.30;10.45;;;;;;;1.82;55.88;102443.78;5050125;28;20024;-21
2022/03/19 05:35:22;;;;;;;18.67;11.23;;;;;;;1.78;55.18;102426.53;5051193;28;20025;-20
2022/03/19 05:37:49;;;;;;;23.10;11.93;;;;;;;1.97;55.59;102448.00;5049757;28;20032;-21
2022/03/19 05:40:14;;;;;;;21.08;12.13;;;;;;;1.69;55.34;102412.19;5049803;28;20459;-21
2022/03/19 05:42:40;;;;;;;23.25;12.43;;;;;;;1.45;55.33;102427.81;5051099;28;20032;-21
2022/03/19 05:45:06;;;;;;;18.63;11.05;;;;;;;1.71;54.50;102425.25;5049477;28;20075;-21
2022/03/19 05:47:31;;;;;;;19.17;10.90;;;;;;;1.83;54.15;102444.63;5049623;28;20024;-21
2022/03/19 05:49:57;;;;;;;24.65;12.02;;;;;;;1.53;54.21;102445.72;5050930;28;20393;-20
2022/03/19 05:52:23;;;;;;;27.88;13.32;;;;;;;1.69;55.43;102424.50;5050806;28;20037;-21
2022/03/19 05:54:48;;;;;;;52.03;21.60;;;;;;;1.88;54.75;102453.91;5050639;28;20032;-20
2022/03/19 05:57:13;;;;;;;26.25;13.25;;;;;;;1.89;55.51;102442.41;5050779;28;20044;-21
2022/03/19 05:59:39;;;;;;;26.00;14.20;;;;;;;2.15;54.18;102443.28;5049726;28;20032;-21
2022/03/19 06:02:06;;;;;;;28.25;15.57;;;;;;;2.30;52.82;102451.06;5050878;28;20033;-21
2022/03/19 06:04:35;;;;;;;26.30;14.75;;;;;;;2.32;53.31;102447.38;5051342;28;20055;-20
2022/03/19 06:07:01;;;;;;;21.70;12.48;;;;;;;2.30;51.66;102444.00;5048988;28;20041;-20
2022/03/19 06:09:27;;;;;;;20.05;11.02;;;;;;;2.60;52.10;102451.56;5051456;28;20067;-21
2022/03/19 06:11:52;;;;;;;17.70;9.70;;;;;;;2.95;50.33;102450.00;5050633;28;20466;-22
2022/03/19 06:14:18;;;;;;;18.65;10.40;;;;;;;3.05;50.27;102447.56;5050635;28;20050;-20
2022/03/19 06:16:43;;;;;;;18.70;11.10;;;;;;;3.02;49.71;102440.69;5050506;28;20049;-21
2022/03/19 06:19:09;;;;;;;21.35;11.88;;;;;;;3.02;48.72;102451.25;5032274;28;20420;-21
2022/03/19 06:21:34;;;;;;;19.60;11.55;;;;;;;2.84;48.41;102455.19;5050307;28;20478;-21
2022/03/19 06:23:59;;;;;;;19.42;11.70;;;;;;;3.08;49.48;102445.53;5050408;28;20033;-21
2022/03/19 06:26:25;;;;;;;19.02;11.85;;;;;;;3.10;49.19;102458.59;5048989;28;20036;-21
2022/03/19 06:28:51;;;;;;;19.42;11.25;;;;;;;3.18;49.63;102457.09;5048556;28;20500;-21
2022/03/19 06:31:17;;;;;;;20.00;11.93;;;;;;;3.33;47.50;102459.56;5050402;28;20033;-21
2022/03/19 06:33:44;;;;;;;21.77;12.13;;;;;;;3.49;47.68;102451.34;5050281;28;20462;-21
2022/03/19 06:38:56;;;;;;;20.38;11.32;;;;;;;4.08;44.58;102453.94;5050261;28;20056;-21
2022/03/19 06:41:22;;;;;;;18.27;10.38;;;;;;;4.18;43.69;102446.97;5048981;28;20489;-20
2022/03/19 06:43:48;;;;;;;18.10;10.20;;;;;;;4.03;43.55;102453.44;5049389;28;20040;-20
2022/03/19 06:46:14;;;;;;;18.30;10.25;;;;;;;4.22;43.10;102448.41;5050099;28;20087;-20
2022/03/19 06:48:39;;;;;;;25.08;14.38;;;;;;;4.26;42.52;102449.03;5050188;28;20670;-20
2022/03/19 06:51:05;;;;;;;18.83;11.07;;;;;;;4.18;43.14;102430.28;5049906;28;20484;-20
2022/03/19 06:53:30;;;;;;;23.77;18.55;;;;;;;4.71;41.74;102450.84;5049950;28;20056;-20
2022/03/19 06:55:56;;;;;;;27.83;22.35;;;;;;;4.90;41.96;102436.97;5049717;28;20025;-20
2022/03/19 06:58:21;;;;;;;17.60;9.90;;;;;;;4.73;39.88;102431.25;5050189;28;20429;-20
2022/03/19 07:00:47;;;;;;;17.23;10.02;;;;;;;5.00;39.10;102448.50;5048320;28;20068;-20
2022/03/19 07:03:13;;;;;;;15.73;9.35;;;;;;;5.10;40.17;102448.59;5048290;28;20033;-22
2022/03/19 07:05:38;;;;;;;16.33;8.90;;;;;;;5.05;38.51;102446.34;5049407;28;20032;-22
2022/03/19 07:08:08;;;;;;;18.23;12.52;;;;;;;4.29;40.01;102448.81;5050066;28;20672;-21
2022/03/19 07:10:34;;;;;;;19.02;10.57;;;;;;;4.01;40.72;102440.34;5049711;28;20112;-21
2022/03/19 07:13:00;;;;;;;26.10;14.57;;;;;;;4.00;39.77;102433.41;5031474;28;20037;-20
2022/03/19 07:15:30;;;;;;;16.20;11.20;;;;;;;4.65;37.48;102446.88;5049422;28;20083;-20
2022/03/19 07:17:57;;;;;;;25.90;14.23;;;;;;;4.95;36.64;102445.41;5049361;28;20032;-20
2022/03/19 07:20:22;;;;;;;15.43;8.93;;;;;;;5.02;35.96;102457.16;5049760;28;20028;-20
2022/03/19 07:22:58;;;;;;;13.27;7.10;;;;;;;5.06;36.45;102442.72;5049588;28;20078;-21
2022/03/19 07:25:26;;;;;;;13.93;8.30;;;;;;;4.69;38.16;102445.66;5049584;28;20036;-20
2022/03/19 07:27:53;;;;;;;19.10;11.07;;;;;;;5.15;36.25;102435.81;5046207;28;20762;-20
2022/03/19 07:30:19;;;;;;;13.60;8.05;;;;;;;4.79;38.81;102435.22;5049599;28;20033;-20
2022/03/19 07:32:45;;;;;;;16.02;9.38;;;;;;;4.94;38.00;102443.69;5049511;28;20044;-21
2022/03/19 07:35:15;;;;;;;13.63;8.70;;;;;;;4.47;37.95;102446.50;5049070;28;20028;-20
2022/03/19 07:37:44;;;;;;;36.53;19.58;;;;;;;4.72;39.17;102440.16;5047848;28;20074;-20
2022/03/19 07:40:12;;;;;;;23.33;13.05;;;;;;;4.22;37.91;102437.03;5049109;28;20029;-21
2022/03/19 07:42:38;;;;;;;17.15;9.85;;;;;;;4.15;38.82;102436.66;5048786;28;20413;-21
2022/03/19 07:45:04;;;;;;;12.45;7.60;;;;;;;3.79;39.52;102446.41;5048957;28;20040;-20
2022/03/19 07:47:31;;;;;;;135.13;47.85;;;;;;;4.59;38.07;102426.22;5049093;28;20033;-20
2022/03/19 07:49:57;;;;;;;111.15;51.28;;;;;;;5.00;37.59;102443.22;5049110;28;20044;-20
2022/03/19 07:52:24;;;;;;;50.83;24.58;;;;;;;5.40;36.87;102446.09;5048942;28;20417;-20
2022/03/19 07:54:50;;;;;;;130.70;63.05;;;;;;;5.60;35.55;102425.09;5047591;28;20059;-21
2022/03/19 07:57:15;;;;;;;25.65;14.40;;;;;;;4.98;36.07;102445.13;5048076;28;20024;-21
2022/03/19 07:59:41;;;;;;;62.35;50.10;;;;;;;4.46;36.69;102433.44;5047267;28;20029;-20
2022/03/19 08:02:06;;;;;;;45.28;27.08;;;;;;;4.91;36.54;102443.97;5048820;28;20064;-21
2022/03/19 08:04:32;;;;;;;30.05;19.17;;;;;;;4.91;35.00;102441.31;5048979;28;20048;-21
2022/03/19 08:06:58;;;;;;;16.85;10.65;;;;;;;5.01;36.12;102455.47;5048142;28;20040;-22
2022/03/19 08:09:24;;;;;;;11.77;7.55;;;;;;;4.60;36.57;102425.25;5048586;28;20029;-21
2022/03/19 08:11:51;;;;;;;22.08;14.20;;;;;;;4.97;36.41;102438.19;5048297;28;20041;-20
2022/03/19 08:14:18;;;;;;;42.70;24.27;;;;;;;5.01;36.70;102419.28;5048473;28;20508;-21
2022/03/19 08:16:44;;;;;;;52.95;31.52;;;;;;;5.53;34.89;102440.63;5048442;28;20045;-20
2022/03/19 08:19:13;;;;;;;22.75;15.10;;;;;;;5.69;35.31;102440.19;5048352;28;20025;-20
2022/03/19 08:21:40;;;;;;;20.65;12.00;;;;;;;5.83;34.70;102446.97;5048228;28;20036;-20
2022/03/19 08:24:06;;;;;;;20.52;13.40;;;;;;;5.47;37.05;102430.53;5046678;28;20020;-20
2022/03/19 08:26:33;;;;;;;17.85;11.45;;;;;;;5.44;34.48;102431.66;5047852;28;20055;-20
2022/03/19 08:28:58;;;;;;;17.42;12.15;;;;;;;5.71;35.19;102432.97;5048349;28;20028;-20
2022/03/19 08:31:24;;;;;;;12.55;7.55;;;;;;;5.15;35.55;102422.59;5048200;28;20550;-20
2022/03/19 08:33:50;;;;;;;22.38;12.75;;;;;;;5.90;34.99;102431.41;5047957;28;20573;-20
2022/03/19 08:36:16;;;;;;;13.38;7.10;;;;;;;5.58;34.88;102422.56;5048022;28;20511;-20
2022/03/19 08:41:25;;;;;;;15.02;8.38;;;;;;;5.61;35.08;102427.59;5048294;28;20095;-21
2022/03/19 08:43:51;;;;;;;13.68;7.95;;;;;;;5.61;36.99;102398.47;5047869;28;20025;-20
2022/03/19 08:46:16;;;;;;;13.85;7.85;;;;;;;5.87;36.84;102413.97;5048088;28;20028;-20
2022/03/19 08:48:42;;;;;;;14.90;7.70;;;;;;;5.59;36.10;102384.53;5047678;28;20409;-20
2022/03/19 08:53:51;;;;;;;11.98;7.05;;;;;;;6.08;34.54;102407.84;5047466;28;20075;-21
2022/03/19 08:56:16;;;;;;;14.18;10.20;;;;;;;6.35;35.67;102415.22;5047822;28;20868;-21
2022/03/19 08:58:42;;;;;;;13.40;7.45;;;;;;;6.46;34.63;102417.78;5047778;28;20029;-20
2022/03/19 09:01:08;;;;;;;12.13;6.38;;;;;;;6.32;34.05;102404.91;5047288;28;20036;-21
2022/03/19 09:03:33;;;;;;;11.68;7.75;;;;;;;6.44;35.81;102396.72;5047312;28;20036;-21
2022/03/19 09:05:59;;;;;;;13.32;7.70;;;;;;;6.81;35.23;102425.28;5047077;28;20404;-20
2022/03/19 09:08:26;;;;;;;10.27;6.50;;;;;;;6.95;34.23;102423.22;5047711;28;20017;-20
2022/03/19 09:10:51;;;;;;;11.80;7.40;;;;;;;6.65;32.31;102414.34;5047131;28;20025;-20
2022/03/19 09:13:17;;;;;;;13.18;6.32;;;;;;;6.13;33.02;102416.22;5047367;28;20543;-20
2022/03/19 09:15:42;;;;;;;17.00;9.68;;;;;;;6.03;34.63;102398.47;5045524;28;20057;-20
2022/03/19 09:18:09;;;;;;;15.43;7.95;;;;;;;5.71;35.38;102416.25;5047236;28;20072;-20
2022/03/19 09:20:35;;;;;;;14.02;7.68;;;;;;;5.17;35.40;102384.50;5046881;28;20509;-21
2022/03/19 09:23:02;;;;;;;12.40;7.22;;;;;;;5.51;34.99;102423.19;5047131;28;20036;-20
2022/03/19 09:25:28;;;;;;;13.43;7.72;;;;;;;5.22;35.35;102400.81;5047303;28;20134;-20
2022/03/19 09:27:53;;;;;;;11.75;7.28;;;;;;;5.52;36.14;102420.44;5047173;28;20103;-20
2022/03/19 09:30:19;;;;;;;21.58;9.82;;;;;;;5.56;34.87;102399.84;5047492;28;20108;-21
2022/03/19 09:32:44;;;;;;;14.40;9.80;;;;;;;5.76;35.73;102419.31;5047289;28;20101;-21
2022/03/19 09:35:10;;;;;;;11.70;7.53;;;;;;;6.37;34.26;102407.97;5046989;28;20029;-21
2022/03/19 09:37:35;;;;;;;13.95;6.85;;;;;;;6.21;33.89;102424.34;5047240;28;20029;-20
2022/03/19 09:40:01;;;;;;;9.68;6.13;;;;;;;6.17;32.03;102407.03;5045795;28;20060;-20
2022/03/19 09:42:32;;;;;;;13.27;7.40;;;;;;;6.42;33.04;102422.50;5047184;28;20052;-20
2022/03/19 09:44:58;;;;;;;8.88;6.13;;;;;;;6.35;33.05;102407.25;5047153;28;20043;-20
2022/03/19 09:47:25;;;;;;;10.10;5.88;;;;;;;6.71;32.15;102431.53;5046894;28;20035;-20
2022/03/19 09:49:51;;;;;;;13.32;6.75;;;;;;;6.72;32.48;102415.50;5045285;28;20045;-21
2022/03/19 09:52:19;;;;;;;11.25;7.35;;;;;;;6.94;33.01;102401.13;5045744;28;20029;-20
2022/03/19 09:54:46;;;;;;;11.40;6.75;;;;;;;6.45;32.83;102410.78;5045707;28;20437;-21
2022/03/19 09:57:11;;;;;;;13.63;7.22;;;;;;;6.52;33.38;102405.78;5045513;28;20166;-20
2022/03/19 09:59:37;;;;;;;32.08;17.77;;;;;;;6.49;33.10;102395.47;5045403;28;20037;-21
2022/03/19 10:02:07;;;;;;;31.92;20.38;;;;;;;6.62;32.83;102407.50;5046821;28;20036;-21
2022/03/19 10:04:32;;;;;;;10.75;6.25;;;;;;;6.17;33.63;102401.75;5046855;28;20402;-20
2022/03/19 10:09:44;;;;;;;16.80;10.38;;;;;;;6.18;33.03;102416.69;5047213;28;20044;-20
2022/03/19 10:12:21;;;;;;;93.68;38.30;;;;;;;5.75;34.50;102401.78;5047244;28;20057;-20
2022/03/19 10:14:55;;;;;;;15.30;8.23;;;;;;;5.37;34.33;102413.75;5044785;28;20828;-22
2022/03/19 10:17:34;;;;;;;15.50;8.27;;;;;;;5.78;33.58;102402.38;5047370;28;20041;-20
2022/03/19 10:20:09;;;;;;;15.35;8.30;;;;;;;6.02;33.21;102399.44;5049325;28;20029;-20
2022/03/19 10:22:39;;;;;;;95.95;40.92;;;;;;;6.27;34.47;102396.50;5050417;28;20799;-20
2022/03/19 10:25:11;;;;;;;34.05;15.98;;;;;;;6.64;33.82;102394.13;5050215;28;20562;-20
2022/03/19 10:27:41;;;;;;;20.70;10.00;;;;;;;7.22;32.19;102388.03;5049182;28;20029;-20
2022/03/19 10:30:19;;;;;;;14.68;8.02;;;;;;;7.40;32.53;102391.69;5050558;28;20037;-19
2022/03/19 10:32:54;;;;;;;9.65;5.88;;;;;;;7.34;33.07;102397.53;5050093;28;20524;-19
2022/03/19 10:35:46;;;;;;;10.98;6.40;;;;;;;6.82;33.25;102392.50;5050287;28;20029;-20
2022/03/19 10:38:22;;;;;;;72.75;28.30;;;;;;;7.42;34.40;102351.72;5049741;28;20097;-21
2022/03/19 10:40:51;;;;;;;13.63;7.93;;;;;;;8.03;31.96;102364.56;5050005;28;20029;-20
2022/03/19 10:43:23;;;;;;;17.73;9.07;;;;;;;8.37;29.49;102379.94;5048631;28;20094;-20
2022/03/19 10:45:50;;;;;;;13.68;7.72;;;;;;;8.30;30.56;102346.97;5050029;28;20021;-20
2022/03/19 10:48:24;;;;;;;15.63;8.70;;;;;;;8.96;31.29;102332.53;5031926;28;20037;-19
2022/03/19 10:50:50;;;;;;;11.68;6.47;;;;;;;8.74;28.06;102376.38;5048301;28;20082;-21
2022/03/19 10:53:18;;;;;;;10.57;6.20;;;;;;;8.57;28.64;102342.63;5049618;28;20440;-21
2022/03/19 10:55:45;;;;;;;11.57;6.38;;;;;;;9.02;27.55;102358.56;5049934;28;20047;-19
2022/03/19 10:58:11;;;;;;;31.17;14.13;;;;;;;9.25;27.26;102363.41;5048465;28;20493;-20
2022/03/19 11:00:37;;;;;;;21.15;9.75;;;;;;;8.50;28.90;102337.09;5049573;28;20091;-20
2022/03/19 11:03:28;;;;;;;17.35;8.68;;;;;;;8.87;27.64;102359.22;5049937;28;20025;-20
2022/03/19 11:06:05;;;;;;;10.70;5.32;;;;;;;9.69;27.02;102349.25;5048847;28;20040;-20
2022/03/19 11:08:38;;;;;;;8.75;5.20;;;;;;;10.33;26.54;102360.44;5049555;28;20052;-20
2022/03/19 11:11:14;;;;;;;36.00;14.20;;;;;;;10.12;25.88;102339.50;5049194;28;20028;-19
2022/03/19 11:13:46;;;;;;;47.67;19.00;;;;;;;8.75;26.82;102332.84;5049485;28;20051;-20
2022/03/19 11:16:12;;;;;;;33.33;15.77;;;;;;;9.19;26.69;102322.28;5049439;28;20060;-20
2022/03/19 11:18:42;;;;;;;9.00;5.25;;;;;;;9.85;24.74;102314.72;5049635;28;20068;-20
2022/03/19 11:21:09;;;;;;;26.27;13.23;;;;;;;9.80;28.24;102335.66;5049120;28;20408;-20
2022/03/19 11:23:55;;;;;;;9.52;5.85;;;;;;;8.78;27.65;102329.88;5049093;28;20052;-20
2022/03/19 11:26:27;;;;;;;9.85;5.75;;;;;;;7.81;29.42;102325.91;5049451;28;20040;-20
2022/03/19 11:28:53;;;;;;;9.68;4.70;;;;;;;8.03;28.45;102319.38;5048974;28;20021;-19
2022/03/19 11:31:28;;;;;;;19.48;9.43;;;;;;;8.89;28.33;102325.31;5048935;28;20033;-20
2022/03/19 11:33:58;;;;;;;12.07;6.00;;;;;;;9.07;26.69;102323.47;5049049;28;20021;-20
2022/03/19 11:36:24;;;;;;;14.43;6.18;;;;;;;9.07;27.74;102312.84;5049238;28;20499;-19
2022/03/19 11:38:52;;;;;;;15.13;7.38;;;;;;;10.78;26.95;102327.19;5048870;28;20029;-20